createdAt,value
2022-12-17T06:03:21.464Z,85.36
2022-12-17T06:08:42.391Z,85.04
2022-12-17T06:14:03.127Z,85.28
2022-12-17T06:19:23.785Z,85.13
2022-12-17T06:24:46.103Z,85.72
2022-12-17T06:30:06.923Z,84.83
2022-12-17T06:35:27.887Z,85.48
2022-12-17T06:40:48.256Z,84.94
2022-12-17T06:46:10.459Z,85.54
2022-12-17T06:51:30.973Z,85.65
2022-12-17T06:56:51.784Z,85.26
2022-12-17T07:02:12.684Z,85.20
2022-12-17T07:07:33.427Z,85.32
2022-12-17T07:12:53.864Z,85.37
2022-12-17T07:18:14.507Z,85.37
2022-12-17T07:23:55.065Z,85.51
2022-12-17T07:29:15.954Z,85.68
2022-12-17T07:34:36.312Z,85.41
2022-12-17T07:39:56.952Z,86.10
2022-12-17T07:45:17.196Z,86.03
2022-12-17T07:50:37.884Z,85.87
2022-12-17T07:55:58.387Z,85.37
2022-12-17T08:01:19.775Z,85.48
2022-12-17T08:06:40.347Z,85.66
2022-12-17T08:12:01.171Z,85.54
2022-12-17T08:17:21.841Z,85.33
2022-12-17T08:22:42.637Z,85.15
2022-12-17T08:28:07.353Z,84.74
2022-12-17T08:33:31.645Z,85.24
2022-12-17T08:38:52.463Z,84.82
2022-12-17T08:44:13.222Z,84.75
2022-12-17T08:49:33.839Z,84.57
2022-12-17T08:54:54.583Z,84.45
2022-12-17T09:00:15.380Z,84.65
2022-12-17T09:05:37.686Z,84.93
2022-12-17T09:10:58.181Z,84.73
2022-12-17T09:16:18.953Z,84.51
2022-12-17T09:21:40.179Z,84.53
2022-12-17T09:27:00.699Z,84.33
2022-12-17T09:32:21.300Z,84.53
2022-12-17T09:37:42.125Z,83.93
2022-12-17T09:43:08.354Z,84.09
2022-12-17T09:48:35.922Z,83.91
2022-12-17T09:54:16.924Z,83.50
2022-12-17T09:59:39.401Z,83.51
2022-12-17T10:05:02.407Z,83.82
2022-12-17T10:10:32.748Z,83.62
2022-12-17T10:15:53.184Z,83.48
2022-12-17T10:21:16.347Z,83.50
2022-12-17T10:26:47.607Z,83.06
2022-12-17T10:32:08.192Z,82.23
2022-12-17T10:37:37.384Z,83.37
2022-12-17T10:42:58.810Z,83.56
2022-12-17T10:48:19.498Z,83.47
2022-12-17T10:53:41.763Z,83.31
2022-12-17T10:59:07.948Z,83.16
2022-12-17T11:04:43.823Z,83.21
2022-12-17T11:10:09.859Z,83.06
2022-12-17T11:15:38.913Z,82.76
2022-12-17T11:21:06.427Z,82.77
2022-12-17T11:26:32.675Z,82.60
2022-12-17T11:32:12.372Z,82.79
2022-12-17T11:37:35.956Z,81.81
2022-12-17T11:42:59.492Z,81.77
2022-12-17T11:48:25.893Z,80.72
2022-12-17T11:53:49.485Z,81.22
2022-12-17T11:59:32.850Z,81.90
2022-12-17T12:05:04.710Z,80.74
2022-12-17T12:10:44.264Z,79.65
2022-12-17T12:16:25.151Z,81.25
2022-12-17T12:21:56.747Z,81.92
2022-12-17T12:27:42.190Z,81.57
2022-12-17T12:33:11.224Z,82.30
2022-12-17T12:38:44.429Z,81.65
2022-12-17T12:44:10.890Z,81.70
2022-12-17T12:49:50.079Z,82.14
2022-12-17T12:55:11.748Z,81.99
2022-12-17T13:01:02.049Z,82.27
2022-12-17T13:06:04.533Z,82.68
2022-12-17T13:11:11.262Z,82.32
2022-12-17T13:16:25.621Z,82.36
2022-12-17T13:21:29.567Z,81.69
2022-12-17T13:26:42.968Z,82.04
2022-12-17T13:31:56.963Z,82.63
2022-12-17T13:37:08.631Z,82.50
2022-12-17T13:42:30.430Z,82.75
2022-12-17T13:47:34.529Z,82.72
2022-12-17T13:52:36.520Z,82.46
2022-12-17T13:57:38.744Z,82.35
2022-12-17T14:02:42.472Z,82.44
2022-12-17T14:07:44.591Z,82.72
2022-12-17T14:12:47.137Z,82.31
2022-12-17T14:17:50.048Z,82.67
2022-12-17T14:22:53.865Z,82.62
2022-12-17T14:28:06.593Z,82.59
2022-12-17T14:33:43.973Z,82.77
2022-12-17T14:38:54.427Z,83.08
2022-12-17T14:44:01.020Z,83.64
2022-12-17T14:49:05.812Z,83.59
2022-12-17T14:54:22.265Z,83.26
2022-12-17T14:59:34.394Z,83.63
2022-12-17T15:04:37.796Z,83.26
2022-12-17T15:09:40.604Z,83.34
2022-12-17T15:14:42.587Z,83.18
2022-12-17T15:19:44.619Z,83.27
2022-12-17T15:24:47.681Z,83.31
2022-12-17T15:29:49.675Z,83.62
2022-12-17T15:34:51.726Z,83.25
2022-12-17T15:39:53.765Z,83.50
2022-12-17T15:44:59.475Z,83.50
2022-12-17T15:50:01.547Z,83.50
2022-12-17T15:55:03.665Z,83.67
2022-12-17T16:00:06.017Z,83.62
2022-12-17T16:05:08.318Z,83.48
2022-12-17T16:10:11.312Z,83.68
2022-12-17T16:15:13.753Z,84.01
2022-12-17T16:20:15.778Z,83.89
2022-12-17T16:25:17.887Z,84.04
2022-12-17T16:30:19.945Z,84.41
2022-12-17T16:35:23.964Z,84.76
2022-12-17T16:40:26.031Z,85.08
2022-12-17T16:45:28.026Z,84.84
2022-12-17T16:50:30.557Z,84.32
2022-12-17T16:55:32.564Z,84.42
2022-12-17T17:00:34.902Z,84.24
2022-12-17T17:05:37.972Z,84.23
2022-12-17T17:10:40.002Z,84.41
2022-12-17T17:15:42.077Z,84.94
2022-12-17T17:20:44.255Z,86.32
2022-12-17T17:25:58.339Z,85.83
2022-12-17T17:31:01.631Z,85.24
2022-12-17T17:36:05.330Z,84.59
2022-12-17T17:41:08.867Z,84.64
2022-12-17T17:46:19.913Z,84.40
2022-12-17T17:51:39.044Z,85.28
2022-12-17T17:56:46.219Z,84.80
2022-12-17T18:01:49.660Z,85.33
2022-12-17T18:07:23.690Z,85.13
2022-12-17T18:12:33.370Z,84.77
2022-12-17T18:17:35.374Z,85.12
2022-12-17T18:22:37.639Z,86.10
2022-12-17T18:27:47.238Z,85.70
2022-12-17T18:32:49.238Z,85.43
2022-12-17T18:37:51.213Z,85.21
2022-12-17T18:43:12.074Z,85.19
2022-12-17T18:48:14.207Z,85.63
2022-12-17T18:53:16.278Z,85.66
2022-12-17T18:58:18.255Z,85.43
2022-12-17T19:03:20.282Z,84.97
2022-12-17T19:08:22.358Z,85.27
2022-12-17T19:13:24.368Z,85.12
2022-12-17T19:18:26.415Z,84.67
2022-12-17T19:23:33.401Z,85.01
2022-12-17T19:28:35.856Z,85.31
2022-12-17T19:33:38.740Z,85.81
2022-12-17T19:38:41.145Z,85.96
2022-12-17T19:43:44.398Z,86.25
2022-12-17T19:48:48.893Z,86.16
2022-12-17T19:53:54.054Z,85.97
2022-12-17T19:59:08.899Z,85.83
2022-12-17T20:09:14.064Z,85.83
2022-12-17T20:14:23.815Z,86.13
2022-12-17T20:19:33.274Z,85.84
2022-12-17T20:24:37.303Z,85.90
2022-12-17T20:29:39.356Z,85.79
2022-12-17T20:34:41.383Z,85.67
2022-12-17T20:39:43.433Z,85.70
2022-12-17T20:44:50.040Z,85.95
2022-12-17T20:49:55.265Z,85.94
2022-12-17T20:54:57.334Z,86.19
2022-12-17T20:59:59.346Z,86.25
2022-12-17T21:05:01.390Z,87.11
2022-12-17T21:10:03.604Z,86.75
2022-12-17T21:15:05.787Z,86.97
2022-12-17T21:20:08.336Z,86.61
2022-12-17T21:25:13.630Z,87.26
2022-12-17T21:30:15.702Z,86.88
2022-12-17T21:35:17.832Z,87.07
2022-12-17T21:40:21.924Z,86.85
2022-12-17T21:45:24.764Z,87.05
2022-12-17T21:50:27.017Z,87.41
2022-12-17T21:55:29.060Z,86.88
2022-12-17T22:00:31.108Z,86.29
2022-12-17T22:05:35.328Z,86.06
2022-12-17T22:10:40.111Z,86.57
2022-12-17T22:15:48.215Z,86.86
2022-12-17T22:21:00.411Z,87.34
2022-12-17T22:26:02.433Z,87.33
2022-12-17T22:31:23.925Z,87.46
2022-12-17T22:39:20.272Z,86.57
2022-12-17T22:44:38.566Z,86.62
